Time;durP1;ratioP1;P1;durP2;ratioP2;P2;SDS_P1;SDS_P2;PMS_P1;PMS_P2;Temp;Humidity;BMP_temperature;BMP_pressure;BME280_temperature;BME280_humidity;BME280_pressure;Samples;Min_cycle;Max_cycle;Signal;HPM_P1;HPM_P2
2024/03/08 00:00:09;;;;;;;19.98;14.20;;;1.70;99.90;;;;;;5074793;28;20235;-61
2024/03/08 00:02:37;;;;;;;20.75;14.77;;;1.70;99.90;;;;;;5075427;28;20229;-61
2024/03/08 00:05:08;;;;;;;20.73;14.23;;;1.60;99.90;;;;;;5074487;28;20205;-62
2024/03/08 00:07:35;;;;;;;23.13;14.95;;;1.60;99.90;;;;;;5074777;28;20590;-61
2024/03/08 00:10:02;;;;;;;24.85;15.43;;;1.60;99.90;;;;;;5074208;28;20208;-62
2024/03/08 00:12:29;;;;;;;20.33;14.32;;;1.60;99.90;;;;;;5076974;28;20227;-62
2024/03/08 00:14:57;;;;;;;19.67;13.95;;;1.60;99.90;;;;;;5080215;28;20232;-62
2024/03/08 00:17:24;;;;;;;27.92;15.10;;;1.60;99.90;;;;;;5076476;28;20224;-62
2024/03/08 00:19:50;;;;;;;21.65;14.60;;;1.60;99.90;;;;;;5076940;28;20204;-61
2024/03/08 00:22:18;;;;;;;20.67;14.73;;;1.50;99.90;;;;;;5076422;28;20238;-61
2024/03/08 00:24:45;;;;;;;23.67;14.65;;;1.50;99.90;;;;;;5074031;28;20221;-61
2024/03/08 00:27:12;;;;;;;25.77;16.27;;;1.50;99.90;;;;;;5073730;28;20205;-60
2024/03/08 00:29:39;;;;;;;22.33;15.65;;;1.50;99.90;;;;;;5077389;28;20207;-61
2024/03/08 00:32:07;;;;;;;25.40;15.05;;;1.50;99.90;;;;;;5078544;28;20293;-60
2024/03/08 00:34:36;;;;;;;27.73;16.40;;;1.40;99.90;;;;;;5080737;28;20207;-62
2024/03/08 00:37:03;;;;;;;21.67;14.70;;;1.40;99.90;;;;;;5081490;28;20291;-61
2024/03/08 00:39:31;;;;;;;23.88;15.43;;;1.40;99.90;;;;;;5084994;28;20220;-60
2024/03/08 00:41:58;;;;;;;28.40;15.18;;;1.40;99.90;;;;;;5080308;28;20217;-61
2024/03/08 00:44:24;;;;;;;22.38;16.85;;;1.40;99.90;;;;;;5079757;28;20201;-63
2024/03/08 00:46:51;;;;;;;28.35;15.25;;;1.30;99.90;;;;;;5079692;28;20223;-62
2024/03/08 00:49:18;;;;;;;25.85;15.65;;;1.30;99.90;;;;;;5078818;28;20200;-62
2024/03/08 00:51:44;;;;;;;22.13;15.10;;;1.30;99.90;;;;;;5078016;28;20590;-61
2024/03/08 00:54:11;;;;;;;20.70;14.23;;;1.20;99.90;;;;;;5077685;28;20197;-61
2024/03/08 00:56:40;;;;;;;28.83;16.83;;;1.20;99.90;;;;;;5078495;28;20207;-62
2024/03/08 00:59:08;;;;;;;24.58;16.55;;;1.20;99.90;;;;;;5077644;28;20213;-61
2024/03/08 01:01:34;;;;;;;25.33;16.80;;;1.20;99.90;;;;;;5077057;28;20713;-61
2024/03/08 01:04:01;;;;;;;24.80;16.13;;;1.20;99.90;;;;;;5077167;28;20223;-60
2024/03/08 01:06:28;;;;;;;25.20;15.70;;;1.10;99.90;;;;;;5078320;28;20246;-62
2024/03/08 01:08:55;;;;;;;26.88;15.98;;;1.10;99.90;;;;;;5077773;28;20224;-62
2024/03/08 01:11:21;;;;;;;29.25;16.10;;;1.10;99.90;;;;;;5088130;28;20225;-61
2024/03/08 01:13:49;;;;;;;20.33;14.38;;;1.10;99.90;;;;;;5092194;28;20201;-63
2024/03/08 01:16:17;;;;;;;26.55;15.45;;;1.10;99.90;;;;;;5085683;28;20223;-61
2024/03/08 01:18:44;;;;;;;24.67;14.48;;;1.10;99.90;;;;;;5084415;28;20220;-61
2024/03/08 01:21:11;;;;;;;24.52;14.95;;;1.10;99.90;;;;;;5081837;28;20225;-61
2024/03/08 01:23:37;;;;;;;20.98;14.35;;;1.00;99.90;;;;;;5080767;28;20212;-62
2024/03/08 01:26:04;;;;;;;23.88;16.83;;;1.00;99.90;;;;;;5080774;28;20205;-61
2024/03/08 01:28:33;;;;;;;23.15;16.05;;;1.00;99.90;;;;;;5079429;28;20201;-60
2024/03/08 01:31:03;;;;;;;23.83;15.75;;;1.00;99.90;;;;;;5077943;28;20205;-61
2024/03/08 01:33:31;;;;;;;28.10;16.20;;;0.90;99.90;;;;;;5078630;28;20236;-62
2024/03/08 01:35:58;;;;;;;23.98;15.65;;;0.90;99.90;;;;;;5078411;28;20209;-60
2024/03/08 01:38:24;;;;;;;25.45;16.50;;;0.90;99.90;;;;;;5077759;28;20216;-60
2024/03/08 01:40:52;;;;;;;24.83;16.30;;;0.90;99.90;;;;;;5077279;28;20208;-61
2024/03/08 01:43:20;;;;;;;22.77;15.85;;;0.80;99.90;;;;;;5077785;28;20274;-61
2024/03/08 01:45:47;;;;;;;24.45;16.20;;;0.80;99.90;;;;;;5077765;28;20200;-63
2024/03/08 01:48:17;;;;;;;27.98;16.00;;;0.80;99.90;;;;;;5077386;28;20197;-62
2024/03/08 01:50:44;;;;;;;26.65;15.60;;;0.80;99.90;;;;;;5077409;28;20200;-62
2024/03/08 01:53:12;;;;;;;24.63;15.70;;;0.80;99.90;;;;;;5077377;28;20552;-63
2024/03/08 01:55:40;;;;;;;24.55;15.85;;;0.80;99.90;;;;;;5076696;28;20254;-61
2024/03/08 01:58:07;;;;;;;25.52;16.65;;;0.80;99.90;;;;;;5076314;28;20600;-61
2024/03/08 02:00:36;;;;;;;27.98;16.23;;;0.80;99.90;;;;;;5076836;28;20211;-61
2024/03/08 02:03:03;;;;;;;26.55;16.10;;;0.80;99.90;;;;;;5076199;28;20232;-62
2024/03/08 02:05:32;;;;;;;24.58;16.35;;;0.80;99.90;;;;;;5076856;28;20542;-61
2024/03/08 02:07:59;;;;;;;23.63;16.23;;;0.70;99.90;;;;;;5076354;28;20551;-61
2024/03/08 02:10:26;;;;;;;24.80;14.52;;;0.70;99.90;;;;;;5076258;28;20201;-62
2024/03/08 02:12:53;;;;;;;22.80;14.32;;;0.70;99.90;;;;;;5076111;28;20227;-61
2024/03/08 02:15:21;;;;;;;27.08;16.33;;;0.70;99.90;;;;;;5076308;28;20212;-60
2024/03/08 02:17:48;;;;;;;23.02;16.45;;;0.60;99.90;;;;;;5076123;28;20205;-61
2024/03/08 02:20:16;;;;;;;23.35;16.85;;;0.60;99.90;;;;;;5075935;28;20663;-61
2024/03/08 02:22:44;;;;;;;29.38;16.98;;;0.60;99.90;;;;;;5076854;28;20221;-61
2024/03/08 02:25:12;;;;;;;28.08;17.23;;;0.50;99.90;;;;;;5076340;28;20197;-61
2024/03/08 02:27:38;;;;;;;25.77;16.60;;;0.50;99.90;;;;;;5077145;28;20208;-61
2024/03/08 02:30:06;;;;;;;31.05;16.23;;;0.50;99.90;;;;;;5078201;28;20204;-61
2024/03/08 02:32:33;;;;;;;26.17;16.45;;;0.50;99.90;;;;;;5078117;28;20224;-62
2024/03/08 02:35:00;;;;;;;26.10;16.63;;;0.50;99.90;;;;;;5078674;28;20634;-60
2024/03/08 02:37:28;;;;;;;28.42;16.30;;;0.50;99.90;;;;;;5079297;28;20258;-61
2024/03/08 02:39:56;;;;;;;26.95;16.50;;;0.40;99.90;;;;;;5079980;28;20220;-61
2024/03/08 02:42:23;;;;;;;26.02;16.75;;;0.40;99.90;;;;;;5080802;28;20240;-60
2024/03/08 02:44:49;;;;;;;30.13;18.23;;;0.40;99.90;;;;;;5083129;28;20197;-62
2024/03/08 02:47:16;;;;;;;26.80;16.48;;;0.40;99.90;;;;;;5083666;28;20209;-62
2024/03/08 02:49:43;;;;;;;25.48;15.75;;;0.30;99.90;;;;;;5081898;28;20208;-61
2024/03/08 02:52:10;;;;;;;28.35;16.77;;;0.30;99.90;;;;;;5082349;28;20327;-61
2024/03/08 02:54:36;;;;;;;23.95;15.73;;;0.30;99.90;;;;;;5081281;28;20235;-61
2024/03/08 02:57:07;;;;;;;33.22;16.75;;;0.30;99.90;;;;;;5082018;28;20277;-61
2024/03/08 02:59:34;;;;;;;25.50;16.02;;;0.30;99.90;;;;;;5079673;28;20209;-60
2024/03/08 03:02:01;;;;;;;30.40;17.00;;;0.30;99.90;;;;;;5076490;28;20232;-61
2024/03/08 03:04:28;;;;;;;27.10;17.23;;;0.20;99.90;;;;;;5074718;28;20211;-61
2024/03/08 03:06:55;;;;;;;28.17;17.27;;;0.20;99.90;;;;;;5074916;28;20201;-60
2024/03/08 03:09:27;;;;;;;23.70;16.25;;;0.20;99.90;;;;;;5077941;28;20204;-60
2024/03/08 03:11:54;;;;;;;24.00;16.08;;;0.20;99.90;;;;;;5075901;28;20563;-61
2024/03/08 03:14:22;;;;;;;23.52;16.23;;;0.20;99.90;;;;;;5075111;28;20201;-61
2024/03/08 03:16:49;;;;;;;27.25;15.57;;;0.10;99.90;;;;;;5075408;28;20688;-61
2024/03/08 03:19:16;;;;;;;24.65;15.68;;;0.10;99.90;;;;;;5075876;28;20221;-61
2024/03/08 03:21:44;;;;;;;22.70;16.27;;;0.10;99.90;;;;;;5078517;28;20231;-61
2024/03/08 03:24:10;;;;;;;28.00;16.65;;;0.00;99.90;;;;;;5076373;28;20208;-61
2024/03/08 03:26:38;;;;;;;27.90;16.23;;;0.00;99.90;;;;;;5076451;28;20212;-61
2024/03/08 03:29:08;;;;;;;27.33;17.23;;;0.00;99.90;;;;;;5076147;28;20278;-61
2024/03/08 03:31:37;;;;;;;30.00;16.85;;;0.00;99.90;;;;;;5074116;28;20225;-61
2024/03/08 03:34:04;;;;;;;28.73;17.02;;;0.00;99.90;;;;;;5074173;28;20201;-61
2024/03/08 03:36:31;;;;;;;33.85;17.20;;;0.00;99.90;;;;;;5073945;28;20205;-61
2024/03/08 03:39:10;;;;;;;24.17;16.40;;;0.00;99.90;;;;;;5075111;28;20231;-61
2024/03/08 03:41:37;;;;;;;25.13;16.73;;;-0.10;99.90;;;;;;5075745;28;20289;-61
2024/03/08 03:44:04;;;;;;;24.88;16.02;;;-0.10;99.90;;;;;;5074249;28;20298;-61
2024/03/08 03:46:30;;;;;;;25.20;16.45;;;-0.10;99.90;;;;;;5074141;28;20201;-58
2024/03/08 03:48:58;;;;;;;27.13;17.13;;;-0.20;99.90;;;;;;5074189;28;20201;-61
2024/03/08 03:51:25;;;;;;;25.55;17.27;;;-0.20;99.90;;;;;;5077881;28;20231;-61
2024/03/08 03:53:52;;;;;;;30.52;16.67;;;-0.20;99.90;;;;;;5081997;28;20667;-62
2024/03/08 03:56:19;;;;;;;29.20;17.90;;;-0.30;99.90;;;;;;5077012;28;20200;-61
2024/03/08 03:58:46;;;;;;;25.05;16.05;;;-0.30;99.90;;;;;;5074538;28;20217;-61
2024/03/08 04:01:13;;;;;;;28.63;16.83;;;-0.30;99.90;;;;;;5074671;28;20224;-61
2024/03/08 04:03:42;;;;;;;32.78;18.38;;;-0.30;99.90;;;;;;5074333;28;20208;-60
2024/03/08 04:06:11;;;;;;;26.45;17.20;;;-0.30;99.90;;;;;;5073376;28;20636;-62
2024/03/08 04:08:37;;;;;;;30.90;16.98;;;-0.40;99.90;;;;;;5073226;28;20204;-61
2024/03/08 04:13:20;;;;;;;27.45;17.48;;;-0.40;99.90;;;;;;5132011;27;20542;-61
2024/03/08 04:15:48;;;;;;;26.45;16.92;;;-0.40;99.90;;;;;;5132121;27;20286;-61
2024/03/08 04:18:15;;;;;;;30.27;18.13;;;-0.50;99.90;;;;;;5131920;27;20256;-61
2024/03/08 04:20:41;;;;;;;28.20;17.13;;;-0.50;99.90;;;;;;5131483;27;20199;-62
2024/03/08 04:23:08;;;;;;;29.77;18.08;;;-0.50;99.90;;;;;;5131659;27;20209;-61
2024/03/08 04:25:35;;;;;;;29.20;16.38;;;-0.50;99.90;;;;;;5132467;27;20206;-61
2024/03/08 04:28:02;;;;;;;25.40;16.10;;;-0.60;99.90;;;;;;5132159;27;20199;-61
2024/03/08 04:30:30;;;;;;;35.78;17.25;;;-0.60;99.90;;;;;;5131448;27;20557;-61
2024/03/08 04:32:57;;;;;;;32.40;17.80;;;-0.60;99.90;;;;;;5131418;27;20258;-62
2024/03/08 04:35:24;;;;;;;30.23;16.63;;;-0.70;99.90;;;;;;5131944;27;20214;-62
2024/03/08 04:37:50;;;;;;;24.27;15.98;;;-0.70;99.90;;;;;;5132723;27;20256;-62
2024/03/08 04:40:18;;;;;;;30.75;17.60;;;-0.70;99.90;;;;;;5132938;27;20206;-62
2024/03/08 04:42:45;;;;;;;31.42;19.00;;;-0.70;99.90;;;;;;5132242;27;20223;-61
2024/03/08 04:45:12;;;;;;;30.77;16.88;;;-0.70;99.90;;;;;;5131737;27;20191;-61
2024/03/08 04:47:40;;;;;;;34.40;16.77;;;-0.70;99.90;;;;;;5131927;27;20195;-61
2024/03/08 04:50:08;;;;;;;30.85;16.83;;;-0.70;99.90;;;;;;5131761;27;20569;-61
2024/03/08 04:52:35;;;;;;;29.80;15.50;;;-0.70;99.90;;;;;;5131779;27;20223;-61
2024/03/08 04:55:04;;;;;;;30.08;16.70;;;-0.80;99.90;;;;;;5134496;27;20199;-60
2024/03/08 04:57:31;;;;;;;28.15;16.90;;;-0.70;99.90;;;;;;5139019;27;20207;-61
2024/03/08 04:59:58;;;;;;;32.22;18.65;;;-0.70;99.90;;;;;;5132689;27;20661;-59
2024/03/08 05:02:25;;;;;;;28.58;15.27;;;-0.70;99.90;;;;;;5131161;22;20243;-60
2024/03/08 05:04:53;;;;;;;30.35;17.20;;;-0.70;99.90;;;;;;5109843;28;20206;-61
2024/03/08 05:07:20;;;;;;;35.28;18.90;;;-0.70;99.90;;;;;;5110464;28;20214;-60
2024/03/08 05:09:51;;;;;;;28.60;17.55;;;-0.70;99.90;;;;;;5109991;28;20196;-60
2024/03/08 05:12:18;;;;;;;27.02;16.83;;;-0.70;99.90;;;;;;5110138;28;20273;-62
2024/03/08 05:14:46;;;;;;;30.00;18.85;;;-0.70;99.90;;;;;;5110251;28;20207;-62
2024/03/08 05:17:13;;;;;;;29.13;16.73;;;-0.70;99.90;;;;;;5110197;28;20286;-59
2024/03/08 05:19:39;;;;;;;29.25;19.38;;;-0.70;99.90;;;;;;5109949;28;20230;-60
2024/03/08 05:22:08;;;;;;;30.25;16.80;;;-0.70;99.90;;;;;;5109364;28;20227;-60
2024/03/08 05:24:35;;;;;;;28.77;17.13;;;-0.70;99.90;;;;;;5096688;28;20386;-61
2024/03/08 05:27:03;;;;;;;30.63;17.45;;;-0.70;99.90;;;;;;5095762;28;20206;-61
2024/03/08 05:29:30;;;;;;;31.85;19.00;;;-0.70;99.90;;;;;;5095799;28;20200;-60
2024/03/08 05:31:57;;;;;;;31.58;18.40;;;-0.70;99.90;;;;;;5095478;28;20220;-61
2024/03/08 05:34:24;;;;;;;30.02;18.35;;;-0.70;99.90;;;;;;5095603;28;20214;-60
2024/03/08 05:36:51;;;;;;;32.33;19.35;;;-0.70;99.90;;;;;;5096170;28;20201;-61
2024/03/08 05:39:20;;;;;;;30.88;17.55;;;-0.70;99.90;;;;;;5096727;28;20200;-60
2024/03/08 05:41:47;;;;;;;30.25;18.50;;;-0.70;99.90;;;;;;5101758;28;20236;-60
2024/03/08 05:44:14;;;;;;;28.15;19.05;;;-0.70;99.90;;;;;;5098090;28;20200;-61
2024/03/08 05:46:41;;;;;;;35.70;18.13;;;-0.60;99.90;;;;;;5096082;28;20493;-61
2024/03/08 05:49:09;;;;;;;28.48;19.13;;;-0.60;99.90;;;;;;5095545;28;20200;-61
2024/03/08 05:51:39;;;;;;;33.90;20.38;;;-0.60;99.90;;;;;;5095276;28;20786;-61
2024/03/08 05:54:08;;;;;;;27.13;18.52;;;-0.60;99.90;;;;;;5096321;28;20259;-61
2024/03/08 05:56:37;;;;;;;32.35;19.30;;;-0.50;99.90;;;;;;5095370;28;20204;-61
2024/03/08 05:59:04;;;;;;;31.13;21.77;;;-0.50;99.90;;;;;;5095447;28;20207;-61
2024/03/08 06:01:31;;;;;;;31.80;18.92;;;-0.50;99.90;;;;;;5094894;28;20231;-60
2024/03/08 06:03:58;;;;;;;30.58;19.27;;;-0.50;99.90;;;;;;5095498;28;20196;-61
2024/03/08 06:06:26;;;;;;;36.83;20.60;;;-0.50;99.90;;;;;;5095645;28;20207;-62
2024/03/08 06:08:53;;;;;;;29.88;18.75;;;-0.40;99.90;;;;;;5095304;28;20205;-61
2024/03/08 06:11:21;;;;;;;36.88;20.02;;;-0.40;99.90;;;;;;5095058;28;20224;-60
2024/03/08 06:13:50;;;;;;;29.40;19.65;;;-0.40;99.90;;;;;;5096139;28;20252;-61
2024/03/08 06:16:16;;;;;;;28.98;18.10;;;-0.40;99.90;;;;;;5094820;28;20204;-61
2024/03/08 06:18:43;;;;;;;31.70;20.00;;;-0.30;99.90;;;;;;5094670;28;20211;-60
2024/03/08 06:21:11;;;;;;;32.42;18.85;;;-0.30;99.90;;;;;;5094818;28;20232;-60
2024/03/08 06:23:38;;;;;;;31.08;19.13;;;-0.30;99.90;;;;;;5095374;28;20234;-60
2024/03/08 06:26:05;;;;;;;30.63;20.13;;;-0.20;99.90;;;;;;5098732;28;20200;-60
2024/03/08 06:28:32;;;;;;;31.63;19.48;;;-0.20;99.90;;;;;;5094821;28;20292;-60
2024/03/08 06:31:01;;;;;;;34.70;19.88;;;-0.20;99.90;;;;;;5095111;28;20258;-61
2024/03/08 06:33:28;;;;;;;32.83;20.98;;;-0.10;99.90;;;;;;5094919;28;20307;-60
2024/03/08 06:35:57;;;;;;;31.73;19.33;;;-0.10;99.90;;;;;;5093738;28;20205;-60
2024/03/08 06:38:23;;;;;;;32.20;20.13;;;0.00;99.90;;;;;;5095124;28;20277;-60
2024/03/08 06:40:51;;;;;;;31.63;20.38;;;0.00;99.90;;;;;;5094818;28;20207;-61
2024/03/08 06:43:18;;;;;;;31.88;21.95;;;0.10;99.90;;;;;;5094399;28;20200;-60
2024/03/08 06:45:48;;;;;;;29.63;20.25;;;0.10;99.90;;;;;;5096246;28;20211;-59
2024/03/08 06:48:16;;;;;;;33.25;20.73;;;0.20;99.90;;;;;;5096650;28;20219;-59
2024/03/08 06:50:44;;;;;;;32.30;20.55;;;0.30;99.90;;;;;;5095145;28;20206;-60
2024/03/08 06:53:11;;;;;;;33.42;20.00;;;0.30;99.90;;;;;;5098337;28;20227;-59
2024/03/08 06:55:38;;;;;;;33.15;19.98;;;0.30;99.90;;;;;;5094688;28;20201;-61
2024/03/08 06:58:06;;;;;;;29.73;21.05;;;0.40;99.90;;;;;;5094122;28;20211;-60
2024/03/08 07:00:33;;;;;;;32.00;20.48;;;0.50;99.90;;;;;;5096161;28;20294;-60
2024/03/08 07:03:00;;;;;;;34.28;20.50;;;0.50;99.90;;;;;;5094973;28;20356;-60
2024/03/08 07:05:29;;;;;;;34.22;20.52;;;0.60;99.90;;;;;;5094393;28;20705;-63
2024/03/08 07:07:55;;;;;;;33.28;21.08;;;0.60;99.90;;;;;;5095990;28;20209;-61
2024/03/08 07:10:24;;;;;;;24.38;17.95;;;0.70;99.90;;;;;;5093948;28;20201;-61
2024/03/08 07:12:51;;;;;;;37.72;18.83;;;0.80;99.90;;;;;;5094551;28;20228;-61
2024/03/08 07:15:19;;;;;;;29.90;19.50;;;0.80;99.90;;;;;;5094236;28;20214;-60
2024/03/08 07:17:46;;;;;;;34.80;20.95;;;0.90;99.90;;;;;;5092840;28;20633;-60
2024/03/08 07:20:15;;;;;;;32.70;19.10;;;0.90;99.90;;;;;;5093526;28;20196;-60
2024/03/08 07:22:43;;;;;;;28.10;19.45;;;1.00;99.90;;;;;;5093410;28;20216;-60
2024/03/08 07:25:20;;;;;;;35.42;21.85;;;1.10;99.90;;;;;;5093705;28;20196;-61
2024/03/08 07:27:48;;;;;;;30.48;19.75;;;1.20;99.90;;;;;;5093537;28;20188;-60
2024/03/08 07:30:52;;;;;;;28.30;19.17;;;1.30;99.90;;;;;;5093419;28;20199;-59
2024/03/08 07:33:02;;;;;;;27.55;18.88;;;1.40;99.90;;;;;;5096123;28;20290;-58
2024/03/08 07:35:29;;;;;;;29.92;20.95;;;1.40;99.90;;;;;;5097017;28;20704;-60
2024/03/08 07:37:57;;;;;;;33.47;20.60;;;1.50;99.90;;;;;;5096564;28;20211;-60
2024/03/08 07:40:24;;;;;;;35.20;20.63;;;1.60;99.90;;;;;;5096505;28;20204;-59
2024/03/08 07:42:51;;;;;;;35.42;22.35;;;1.70;99.90;;;;;;5096778;28;20220;-59
2024/03/08 07:45:18;;;;;;;30.67;21.05;;;1.80;99.90;;;;;;5096165;28;20263;-60
2024/03/08 07:47:45;;;;;;;31.02;21.13;;;1.90;99.90;;;;;;5094166;28;20283;-59
2024/03/08 07:50:16;;;;;;;27.38;18.92;;;1.90;99.90;;;;;;5093336;28;20552;-62
2024/03/08 07:52:43;;;;;;;25.40;19.70;;;2.00;99.90;;;;;;5092496;28;20228;-59
2024/03/08 07:55:11;;;;;;;31.15;18.85;;;2.10;99.90;;;;;;5093990;28;20200;-61
2024/03/08 07:57:39;;;;;;;28.48;19.70;;;2.10;99.90;;;;;;5094825;28;20200;-61
2024/03/08 08:00:08;;;;;;;26.33;18.50;;;2.20;99.90;;;;;;5092935;28;20197;-60
2024/03/08 08:02:35;;;;;;;25.73;18.77;;;2.30;99.90;;;;;;5092584;28;20232;-60
2024/03/08 08:05:02;;;;;;;26.85;19.23;;;2.30;99.90;;;;;;5094618;28;20260;-60
2024/03/08 08:07:28;;;;;;;26.23;18.92;;;2.40;99.90;;;;;;5094669;28;20200;-59
2024/03/08 08:09:55;;;;;;;28.67;20.73;;;2.50;99.90;;;;;;5096640;28;20211;-60
2024/03/08 08:12:23;;;;;;;30.13;19.05;;;2.60;99.90;;;;;;5095349;28;20224;-60
2024/03/08 08:14:50;;;;;;;31.50;19.95;;;2.70;99.90;;;;;;5094429;28;20211;-60
2024/03/08 08:17:17;;;;;;;28.42;20.13;;;2.70;99.90;;;;;;5092865;28;20204;-59
2024/03/08 08:19:44;;;;;;;29.73;21.70;;;2.80;99.90;;;;;;5093022;28;20209;-58
2024/03/08 08:22:11;;;;;;;27.48;19.10;;;2.90;99.90;;;;;;5093093;28;20228;-59
2024/03/08 08:24:38;;;;;;;33.97;20.35;;;3.00;99.90;;;;;;5093574;28;20567;-58
2024/03/08 08:27:05;;;;;;;28.30;20.45;;;3.10;99.90;;;;;;5093459;28;20228;-60
2024/03/08 08:29:35;;;;;;;28.17;18.30;;;3.10;99.90;;;;;;5092065;28;20200;-56
2024/03/08 08:32:02;;;;;;;28.92;19.90;;;3.20;99.90;;;;;;5094145;28;20224;-59
2024/03/08 08:34:30;;;;;;;29.52;21.27;;;3.30;99.90;;;;;;5092451;28;20224;-58
2024/03/08 08:36:56;;;;;;;28.13;19.50;;;3.40;99.90;;;;;;5092913;28;20251;-58
2024/03/08 08:39:25;;;;;;;28.60;20.75;;;3.50;99.90;;;;;;5095156;28;20200;-59
2024/03/08 08:41:52;;;;;;;28.63;20.98;;;3.60;99.90;;;;;;5094643;28;20595;-60
2024/03/08 08:44:19;;;;;;;27.67;19.45;;;3.60;99.90;;;;;;5093902;28;20688;-59
2024/03/08 08:46:47;;;;;;;30.73;19.65;;;3.70;99.90;;;;;;5093982;28;20287;-57
2024/03/08 08:49:20;;;;;;;27.88;19.33;;;3.80;99.90;;;;;;5093841;28;20200;-57
2024/03/08 08:51:50;;;;;;;30.35;21.02;;;3.90;99.90;;;;;;5095441;28;20225;-58
2024/03/08 08:54:16;;;;;;;25.50;19.00;;;4.00;99.90;;;;;;5097985;28;20228;-59
2024/03/08 08:56:44;;;;;;;28.13;20.08;;;4.10;99.90;;;;;;5095904;28;20211;-59
2024/03/08 08:59:13;;;;;;;28.30;20.75;;;4.20;99.90;;;;;;5095025;28;20665;-58
2024/03/08 09:01:40;;;;;;;30.38;20.80;;;4.30;99.90;;;;;;5096374;28;20224;-59
2024/03/08 09:04:08;;;;;;;28.77;19.70;;;4.40;99.90;;;;;;5097166;28;20204;-59
2024/03/08 09:06:35;;;;;;;28.52;20.45;;;4.50;99.90;;;;;;5098837;28;20354;-59
2024/03/08 09:09:03;;;;;;;28.63;20.33;;;4.50;99.90;;;;;;5098952;28;20204;-59
2024/03/08 09:11:30;;;;;;;31.13;22.20;;;4.50;99.90;;;;;;5098318;28;20658;-59
2024/03/08 09:13:57;;;;;;;29.13;19.80;;;4.60;99.90;;;;;;5098075;28;20285;-59
2024/03/08 09:16:24;;;;;;;31.63;20.08;;;4.70;99.90;;;;;;5099366;28;20200;-59
2024/03/08 09:18:51;;;;;;;32.35;20.20;;;4.70;99.60;;;;;;5102511;28;20503;-58
2024/03/08 09:21:19;;;;;;;27.38;21.02;;;4.80;99.40;;;;;;5097772;28;20706;-59
2024/03/08 09:23:46;;;;;;;27.65;20.00;;;4.80;98.40;;;;;;5099168;28;20199;-58
2024/03/08 09:26:15;;;;;;;26.73;20.40;;;4.90;97.90;;;;;;5100412;28;20661;-59
2024/03/08 09:28:41;;;;;;;28.42;17.88;;;4.90;97.70;;;;;;5099263;28;20287;-59
2024/03/08 09:31:08;;;;;;;26.48;19.23;;;5.00;97.40;;;;;;5096762;28;20220;-58
2024/03/08 09:33:35;;;;;;;29.75;21.85;;;5.10;96.50;;;;;;5095588;28;20606;-59
2024/03/08 09:36:03;;;;;;;28.50;19.38;;;5.20;96.10;;;;;;5097100;28;20216;-59
2024/03/08 09:38:31;;;;;;;26.67;19.65;;;5.30;95.30;;;;;;5099791;28;20263;-59
2024/03/08 09:40:58;;;;;;;28.38;20.05;;;5.40;94.70;;;;;;5095693;28;20200;-58
2024/03/08 09:43:25;;;;;;;29.00;19.98;;;5.40;94.00;;;;;;5096630;28;20211;-59
2024/03/08 09:45:52;;;;;;;26.90;21.10;;;5.50;93.60;;;;;;5097002;28;20205;-59
2024/03/08 09:48:19;;;;;;;27.10;19.73;;;5.60;93.00;;;;;;5096789;28;20704;-59
2024/03/08 09:50:47;;;;;;;28.73;19.20;;;5.60;92.40;;;;;;5096732;28;20200;-60
2024/03/08 09:53:15;;;;;;;26.25;20.05;;;5.70;92.30;;;;;;5096761;28;20274;-57
2024/03/08 09:55:44;;;;;;;28.83;20.30;;;5.80;91.70;;;;;;5096963;28;20200;-59
2024/03/08 10:00:58;;;;;;;25.17;19.00;;;5.90;90.00;;;;;;5095746;28;20263;-58
2024/03/08 10:03:25;;;;;;;29.45;20.10;;;6.00;89.00;;;;;;5095389;28;20189;-59
2024/03/08 10:05:53;;;;;;;26.55;20.00;;;6.10;88.50;;;;;;5095418;28;20299;-59
2024/03/08 10:08:20;;;;;;;27.13;19.60;;;6.20;87.50;;;;;;5095348;28;20677;-59
2024/03/08 10:10:49;;;;;;;23.95;19.02;;;6.30;85.50;;;;;;5095004;28;20226;-59
2024/03/08 10:13:16;;;;;;;27.13;19.75;;;6.30;83.80;;;;;;5094821;28;20697;-59
2024/03/08 10:15:43;;;;;;;25.27;19.27;;;6.40;82.50;;;;;;5095464;28;20253;-57
2024/03/08 10:18:10;;;;;;;26.30;18.80;;;6.40;81.70;;;;;;5095107;28;20196;-59
2024/03/08 10:20:37;;;;;;;25.00;18.55;;;6.30;81.40;;;;;;5094844;28;20208;-60
2024/03/08 10:23:05;;;;;;;29.05;20.73;;;6.40;81.00;;;;;;5095606;28;20224;-61
2024/03/08 10:25:32;;;;;;;28.70;19.75;;;6.50;80.50;;;;;;5094951;28;20269;-58
2024/03/08 10:28:00;;;;;;;25.88;19.13;;;6.50;79.30;;;;;;5094850;28;20201;-61
2024/03/08 10:30:27;;;;;;;23.80;19.65;;;6.60;79.40;;;;;;5094722;28;20200;-60
2024/03/08 10:32:54;;;;;;;26.83;18.63;;;6.70;78.70;;;;;;5094118;28;20729;-61
2024/03/08 10:35:21;;;;;;;30.85;20.30;;;6.70;77.80;;;;;;5094408;28;20666;-59
2024/03/08 10:37:49;;;;;;;24.98;20.60;;;6.80;77.90;;;;;;5094750;28;20673;-59
2024/03/08 10:40:18;;;;;;;26.08;21.25;;;6.90;77.80;;;;;;5095164;28;20551;-60
2024/03/08 10:42:52;;;;;;;28.27;19.50;;;7.00;77.30;;;;;;5093888;28;20329;-60
2024/03/08 10:45:31;;;;;;;25.45;19.10;;;7.00;76.30;;;;;;5094138;28;20633;-60
2024/03/08 10:48:09;;;;;;;28.85;19.65;;;7.00;75.70;;;;;;5094330;28;20213;-60
2024/03/08 10:50:38;;;;;;;27.52;20.13;;;7.10;75.50;;;;;;5094464;28;20238;-60
2024/03/08 10:53:07;;;;;;;27.67;19.95;;;7.10;75.10;;;;;;5094149;28;20220;-60
2024/03/08 10:55:37;;;;;;;29.40;20.60;;;7.10;75.10;;;;;;5094099;28;20203;-59
2024/03/08 10:58:04;;;;;;;26.70;19.70;;;7.20;74.90;;;;;;5094211;28;20197;-60
2024/03/08 11:00:32;;;;;;;25.55;18.25;;;7.30;73.70;;;;;;5093709;28;20212;-59
2024/03/08 11:03:00;;;;;;;25.35;19.25;;;7.20;72.20;;;;;;5093423;28;20741;-60
2024/03/08 11:05:38;;;;;;;23.90;18.60;;;7.00;72.40;;;;;;5093687;28;20731;-59
2024/03/08 11:08:18;;;;;;;25.63;18.55;;;7.00;72.90;;;;;;5094243;28;20189;-61
2024/03/08 11:10:51;;;;;;;26.50;19.30;;;7.10;73.20;;;;;;5093921;28;20230;-59
2024/03/08 11:13:35;;;;;;;26.05;20.17;;;7.30;72.90;;;;;;5093764;28;20189;-60
2024/03/08 11:16:09;;;;;;;21.58;18.10;;;7.40;72.20;;;;;;5093906;28;20192;-60
2024/03/08 11:18:37;;;;;;;25.52;19.25;;;7.40;71.50;;;;;;5093395;28;20306;-60
2024/03/08 11:21:06;;;;;;;26.10;19.02;;;7.40;70.70;;;;;;5093393;28;20263;-61
2024/03/08 11:23:33;;;;;;;30.13;20.15;;;7.40;70.60;;;;;;5094445;28;20200;-60
2024/03/08 11:26:00;;;;;;;25.17;19.70;;;7.50;70.80;;;;;;5093317;28;20201;-59
2024/03/08 11:28:27;;;;;;;25.33;19.77;;;7.60;71.00;;;;;;5093441;28;20196;-59
2024/03/08 11:31:28;;;;;;;28.83;20.00;;;7.70;70.30;;;;;;5092998;28;20276;-61
2024/03/08 11:33:56;;;;;;;26.50;19.02;;;7.70;69.90;;;;;;5092900;28;20337;-60
2024/03/08 11:36:24;;;;;;;25.63;19.45;;;7.70;70.10;;;;;;5093190;28;20208;-58
2024/03/08 11:38:52;;;;;;;27.23;20.23;;;7.80;69.90;;;;;;5093690;28;20674;-60
2024/03/08 11:41:20;;;;;;;22.77;18.08;;;7.90;69.50;;;;;;5093717;28;20228;-60
2024/03/08 11:43:47;;;;;;;25.02;18.88;;;8.00;69.50;;;;;;5093021;28;20563;-60
2024/03/08 11:46:15;;;;;;;22.90;17.98;;;8.00;69.10;;;;;;5093299;28;20237;-60
2024/03/08 11:48:45;;;;;;;25.98;19.33;;;8.20;68.80;;;;;;5093291;28;20200;-58
2024/03/08 11:51:13;;;;;;;29.45;20.38;;;8.30;68.20;;;;;;5092722;28;20220;-60
2024/03/08 11:53:40;;;;;;;25.63;19.55;;;8.20;67.30;;;;;;5093533;28;20256;-60
2024/03/08 11:56:08;;;;;;;23.83;18.70;;;8.30;67.20;;;;;;5094188;28;20208;-58
2024/03/08 11:58:36;;;;;;;23.55;18.50;;;8.30;67.20;;;;;;5094198;28;20207;-64
2024/03/08 12:01:05;;;;;;;27.88;20.15;;;8.30;66.90;;;;;;5093258;28;20220;-60
2024/03/08 12:03:33;;;;;;;33.72;21.20;;;8.40;66.20;;;;;;5093032;28;20252;-59
2024/03/08 12:06:03;;;;;;;21.02;17.45;;;8.40;66.00;;;;;;5093137;28;20206;-60
2024/03/08 12:08:32;;;;;;;26.27;20.60;;;8.40;66.10;;;;;;5092879;28;20674;-59
2024/03/08 12:11:00;;;;;;;26.25;19.45;;;8.50;66.10;;;;;;5093207;28;20265;-61
2024/03/08 12:13:29;;;;;;;25.58;19.40;;;8.60;65.50;;;;;;5092759;28;20597;-60
2024/03/08 12:15:58;;;;;;;25.33;17.20;;;8.60;65.30;;;;;;5093095;28;20282;-59
2024/03/08 12:18:25;;;;;;;23.25;17.30;;;8.70;65.50;;;;;;5093156;28;20218;-59
2024/03/08 12:20:52;;;;;;;21.13;16.08;;;8.60;64.60;;;;;;5092638;28;20291;-60
2024/03/08 12:23:20;;;;;;;22.85;16.70;;;8.60;64.00;;;;;;5092981;28;20572;-61
2024/03/08 12:25:47;;;;;;;21.67;14.95;;;8.70;63.70;;;;;;5092766;28;20557;-57
2024/03/08 12:28:15;;;;;;;24.13;16.05;;;8.70;63.70;;;;;;5093135;28;20208;-61
2024/03/08 12:30:48;;;;;;;17.30;15.43;;;8.80;62.90;;;;;;5092614;28;20238;-63
2024/03/08 12:33:16;;;;;;;18.50;14.50;;;8.80;62.40;;;;;;5094091;28;20223;-61
2024/03/08 12:35:53;;;;;;;19.70;14.45;;;8.80;62.20;;;;;;5096633;28;20580;-58
2024/03/08 12:38:24;;;;;;;18.65;14.93;;;8.80;60.50;;;;;;5096306;28;20234;-61
2024/03/08 12:40:53;;;;;;;21.20;14.80;;;8.70;60.50;;;;;;5097069;28;20188;-58
2024/03/08 12:43:20;;;;;;;20.40;16.45;;;8.70;60.60;;;;;;5096607;28;20197;-59